Time;durP1;ratioP1;P1;durP2;ratioP2;P2;SDS_P1;SDS_P2;PMS_P1;PMS_P2;Temp;Humidity;BMP_temperature;BMP_pressure;BME280_temperature;BME280_humidity;BME280_pressure;Samples;Min_cycle;Max_cycle;Signal;HPM_P1;HPM_P2
2023/10/18 00:02:56;;;;;;;;;;;7.30;84.60;;;;;;4985167;28;20045;-65
2023/10/18 00:05:26;;;;;;;15.40;11.27;;;7.30;85.30;;;;;;4985865;28;20193;-65
2023/10/18 00:07:52;;;;;;;19.88;12.52;;;7.30;84.30;;;;;;5000035;28;20030;-64
2023/10/18 00:10:17;;;;;;;16.73;11.85;;;7.30;85.50;;;;;;4984209;28;20062;-65
2023/10/18 00:12:47;;;;;;;20.77;11.85;;;7.30;84.70;;;;;;4981603;28;20038;-65
2023/10/18 00:15:14;;;;;;;18.83;12.70;;;7.30;85.00;;;;;;4985743;28;20458;-65
2023/10/18 00:17:40;;;;;;;17.73;12.57;;;7.30;85.00;;;;;;4985551;28;20843;-65
2023/10/18 00:20:25;;;;;;;20.73;13.32;;;7.30;85.00;;;;;;4985736;28;20045;-65
2023/10/18 00:22:51;;;;;;;;;;;7.30;85.00;;;;;;4986475;28;20030;-65
2023/10/18 00:25:17;;;;;;;17.73;11.68;;;7.30;85.70;;;;;;4988859;28;19976;-65
2023/10/18 00:27:46;;;;;;;18.00;12.35;;;7.30;84.60;;;;;;4989041;28;20090;-64
2023/10/18 00:30:12;;;;;;;20.15;12.15;;;7.30;84.80;;;;;;4989042;28;20054;-65
2023/10/18 00:32:47;;;;;;;21.98;13.10;;;7.30;84.80;;;;;;4988491;28;20035;-65
2023/10/18 00:35:18;;;;;;;22.20;12.10;;;7.30;85.00;;;;;;4988667;28;20042;-64
2023/10/18 00:37:44;;;;;;;19.52;12.50;;;7.20;85.00;;;;;;4988937;28;20100;-65
2023/10/18 00:43:27;;;;;;;25.17;12.68;;;7.20;85.20;;;;;;4984971;28;20046;-65
2023/10/18 00:45:54;;;;;;;25.15;12.43;;;7.20;85.70;;;;;;4988811;28;20125;-65
2023/10/18 00:48:28;;;;;;;19.90;13.73;;;7.20;85.10;;;;;;4987070;28;20073;-65
2023/10/18 00:50:56;;;;;;;26.67;13.55;;;7.20;85.20;;;;;;4988409;28;20414;-65
2023/10/18 00:53:24;;;;;;;18.63;12.13;;;7.20;85.20;;;;;;4987958;28;20038;-65
2023/10/18 00:56:04;;;;;;;21.80;12.10;;;7.20;85.30;;;;;;4987634;28;20096;-65
2023/10/18 00:58:32;;;;;;;84.57;14.90;;;7.20;85.60;;;;;;4987739;28;20039;-65
2023/10/18 01:01:01;;;;;;;25.38;12.80;;;7.20;85.40;;;;;;4988270;28;20502;-64
2023/10/18 01:03:32;;;;;;;23.52;12.68;;;7.20;85.50;;;;;;4987707;28;20564;-65
2023/10/18 01:06:12;;;;;;;15.38;11.73;;;7.20;85.50;;;;;;4989197;28;20030;-64
2023/10/18 01:08:44;;;;;;;21.73;13.23;;;7.20;85.90;;;;;;4988308;28;20037;-64
2023/10/18 01:11:10;;;;;;;31.75;13.68;;;7.20;85.50;;;;;;4985459;28;20632;-64
2023/10/18 01:13:42;;;;;;;19.40;13.52;;;7.20;85.60;;;;;;4987250;28;20537;-64
2023/10/18 01:16:31;;;;;;;18.83;13.30;;;7.20;85.70;;;;;;4987841;28;20057;-64
2023/10/18 01:18:55;;;;;;;19.90;13.65;;;7.20;85.80;;;;;;4987665;28;20047;-64
2023/10/18 01:21:22;;;;;;;21.67;12.85;;;7.20;85.70;;;;;;4988105;28;20096;-64
2023/10/18 01:23:53;;;;;;;48.55;13.27;;;7.20;85.70;;;;;;4986741;28;20125;-65
2023/10/18 01:26:24;;;;;;;36.60;14.23;;;7.30;85.90;;;;;;4987317;28;20085;-64
2023/10/18 01:28:54;;;;;;;20.55;12.35;;;7.20;85.50;;;;;;4987323;28;20066;-65
2023/10/18 01:31:20;;;;;;;17.92;12.93;;;7.30;85.50;;;;;;4986928;28;20465;-65
2023/10/18 01:33:50;;;;;;;18.60;13.35;;;7.30;85.50;;;;;;4987071;28;20121;-65
2023/10/18 01:36:18;;;;;;;28.15;13.38;;;7.20;85.50;;;;;;4986580;28;20035;-64
2023/10/18 01:38:48;;;;;;;77.07;14.57;;;7.20;85.60;;;;;;4986876;28;20623;-65
2023/10/18 01:43:58;;;;;;;33.92;13.18;;;7.20;85.60;;;;;;4986919;28;20030;-64
2023/10/18 01:46:24;;;;;;;29.15;13.98;;;7.20;85.70;;;;;;4987742;28;20030;-65
2023/10/18 01:48:55;;;;;;;32.13;13.75;;;7.10;85.60;;;;;;4987106;28;20061;-64
2023/10/18 01:51:23;;;;;;;22.75;12.80;;;7.10;85.70;;;;;;4986363;28;20410;-64
2023/10/18 01:53:50;;;;;;;66.55;13.70;;;7.10;85.70;;;;;;4986859;28;20045;-65
2023/10/18 01:56:19;;;;;;;86.20;15.00;;;7.10;85.90;;;;;;4987711;28;20034;-65
2023/10/18 01:58:46;;;;;;;41.28;12.98;;;7.10;85.80;;;;;;4986678;28;20042;-64
2023/10/18 02:01:16;;;;;;;21.98;12.68;;;7.10;85.90;;;;;;4986322;28;20030;-64
2023/10/18 02:03:44;;;;;;;70.63;13.90;;;7.10;85.90;;;;;;4986656;28;20042;-64
2023/10/18 02:06:09;;;;;;;37.30;12.75;;;7.00;86.00;;;;;;4987258;28;20968;-64
2023/10/18 02:08:35;;;;;;;34.47;13.32;;;7.00;86.00;;;;;;4986588;28;20042;-65
2023/10/18 02:11:07;;;;;;;22.10;12.98;;;7.00;86.30;;;;;;4984207;28;20593;-64
2023/10/18 02:13:33;;;;;;;29.55;13.60;;;7.00;86.40;;;;;;4985796;28;20043;-64
2023/10/18 02:15:59;;;;;;;35.10;13.48;;;7.00;86.40;;;;;;4986899;28;20042;-64
2023/10/18 02:18:27;;;;;;;85.55;15.38;;;7.00;86.40;;;;;;4986098;28;20062;-64
2023/10/18 02:20:53;;;;;;;26.48;13.68;;;7.00;86.40;;;;;;4987510;28;20126;-65
2023/10/18 02:23:21;;;;;;;23.00;13.38;;;6.90;86.40;;;;;;4985752;28;20113;-65
2023/10/18 02:25:48;;;;;;;27.10;13.40;;;6.90;86.40;;;;;;4987295;28;20038;-65
2023/10/18 02:28:25;;;;;;;19.95;12.85;;;6.90;86.40;;;;;;4986356;28;20478;-65
2023/10/18 02:31:13;;;;;;;36.22;13.38;;;6.90;86.60;;;;;;4986592;28;20046;-65
2023/10/18 02:33:45;;;;;;;40.25;13.60;;;6.90;86.70;;;;;;4986355;28;20449;-64
2023/10/18 02:36:11;;;;;;;26.88;13.63;;;7.00;86.60;;;;;;4986577;28;20035;-64
2023/10/18 02:38:38;;;;;;;131.68;15.63;;;6.90;86.40;;;;;;4985539;28;20481;-65
2023/10/18 02:41:26;;;;;;;34.97;13.55;;;7.00;86.60;;;;;;4985909;28;20483;-65
2023/10/18 02:43:57;;;;;;;25.75;13.60;;;6.90;86.50;;;;;;4986571;28;20026;-65
2023/10/18 02:46:24;;;;;;;47.50;14.10;;;6.90;86.40;;;;;;4985553;28;20597;-65
2023/10/18 02:48:54;;;;;;;41.20;13.38;;;6.90;86.60;;;;;;4986122;28;20418;-64
2023/10/18 02:51:24;;;;;;;22.20;13.45;;;6.90;86.70;;;;;;4986652;28;20362;-65
2023/10/18 02:53:51;;;;;;;31.05;13.35;;;6.90;86.70;;;;;;4985970;28;20061;-65
2023/10/18 02:56:17;;;;;;;48.90;14.93;;;6.90;86.90;;;;;;4985549;28;20030;-64
2023/10/18 02:58:46;;;;;;;51.53;14.73;;;6.90;86.90;;;;;;4985703;28;20030;-65
2023/10/18 03:01:14;;;;;;;29.60;14.27;;;6.90;87.00;;;;;;4986368;28;20043;-64
2023/10/18 03:03:40;;;;;;;39.08;14.18;;;6.90;86.80;;;;;;4986188;28;20053;-65
2023/10/18 03:06:12;;;;;;;23.02;13.85;;;6.90;86.90;;;;;;4985860;28;20027;-64
2023/10/18 03:08:42;;;;;;;18.73;13.48;;;6.90;86.80;;;;;;4985773;28;20499;-65
2023/10/18 03:11:11;;;;;;;18.45;12.88;;;6.90;86.80;;;;;;4985692;28;20422;-64
2023/10/18 03:13:37;;;;;;;18.10;13.32;;;6.90;86.80;;;;;;4985818;28;20041;-64
2023/10/18 03:16:46;;;;;;;21.20;13.93;;;6.90;86.70;;;;;;4986071;28;20355;-64
2023/10/18 03:18:51;;;;;;;23.60;12.88;;;7.00;86.80;;;;;;4974665;28;20133;-64
2023/10/18 03:21:25;;;;;;;29.00;14.02;;;7.00;86.90;;;;;;4986095;28;20149;-64
2023/10/18 03:23:52;;;;;;;28.10;12.27;;;7.00;86.70;;;;;;4984636;28;20034;-64
2023/10/18 03:26:22;;;;;;;14.95;11.82;;;7.00;86.70;;;;;;4985981;28;20044;-65
2023/10/18 03:28:51;;;;;;;23.02;13.05;;;7.00;86.70;;;;;;4984842;28;20433;-64
2023/10/18 03:31:34;;;;;;;17.05;12.65;;;6.90;86.70;;;;;;4985261;28;20457;-64
2023/10/18 03:34:08;;;;;;;33.58;12.63;;;7.10;86.90;;;;;;4985705;28;20109;-64
2023/10/18 03:36:48;;;;;;;18.00;12.45;;;7.10;86.60;;;;;;4985739;28;20054;-64
2023/10/18 03:39:26;;;;;;;27.67;13.98;;;7.10;86.50;;;;;;4985018;28;20074;-64
2023/10/18 03:41:53;;;;;;;21.58;13.00;;;7.00;86.50;;;;;;4986177;28;20121;-64
2023/10/18 03:44:26;;;;;;;77.03;16.02;;;7.00;86.40;;;;;;4986247;28;20034;-64
2023/10/18 03:47:03;;;;;;;49.55;12.10;;;7.10;86.60;;;;;;4985738;28;20046;-64
2023/10/18 03:51:56;;;;;;;75.30;15.30;;;7.00;86.10;;;;;;4986141;28;20062;-64
2023/10/18 03:54:27;;;;;;;40.95;14.80;;;7.00;86.00;;;;;;4984913;28;20040;-65
2023/10/18 03:56:54;;;;;;;89.47;15.85;;;6.90;86.10;;;;;;4984502;28;20409;-65
2023/10/18 03:59:25;;;;;;;32.45;14.57;;;6.80;86.40;;;;;;4989381;28;20047;-64
2023/10/18 04:04:38;;;;;;;23.25;13.10;;;6.80;86.80;;;;;;4989080;28;20042;-64
2023/10/18 04:07:13;;;;;;;24.23;12.63;;;6.80;86.90;;;;;;4989732;28;20035;-64
2023/10/18 04:09:46;;;;;;;30.20;13.38;;;6.80;86.90;;;;;;4988912;28;20502;-64
2023/10/18 04:12:17;;;;;;;20.13;14.38;;;6.80;86.90;;;;;;4987848;28;20062;-64
2023/10/18 04:14:50;;;;;;;19.63;14.05;;;6.80;86.90;;;;;;4988741;28;20046;-64
2023/10/18 04:17:19;;;;;;;34.83;15.48;;;6.80;87.00;;;;;;4988153;28;20069;-64
2023/10/18 04:19:47;;;;;;;23.00;13.48;;;6.80;87.00;;;;;;4989648;28;20042;-64
2023/10/18 04:22:13;;;;;;;24.40;13.95;;;6.80;87.10;;;;;;4988583;28;20105;-64
2023/10/18 04:24:39;;;;;;;107.05;16.17;;;6.80;87.10;;;;;;4986043;28;20532;-64
2023/10/18 04:27:05;;;;;;;67.82;14.48;;;6.80;87.10;;;;;;4988947;28;20116;-64
2023/10/18 04:29:33;;;;;;;73.65;15.93;;;6.80;86.80;;;;;;4989886;28;20041;-64
2023/10/18 04:32:03;;;;;;;40.60;14.13;;;6.80;86.90;;;;;;4989175;28;20038;-64
2023/10/18 04:34:33;;;;;;;66.80;15.38;;;6.70;86.70;;;;;;4988894;28;20054;-65
2023/10/18 04:37:00;;;;;;;86.72;15.73;;;6.70;86.70;;;;;;4989780;28;20026;-64
2023/10/18 04:39:27;;;;;;;78.93;14.95;;;6.60;87.00;;;;;;4989190;28;20492;-64
2023/10/18 04:41:53;;;;;;;62.45;15.35;;;6.60;87.00;;;;;;4989625;28;20046;-64
2023/10/18 04:44:20;;;;;;;91.35;15.43;;;6.60;87.10;;;;;;4987515;28;20061;-64
2023/10/18 04:46:49;;;;;;;106.78;16.25;;;6.50;87.40;;;;;;4989044;28;20034;-64
2023/10/18 04:54:08;;;;;;;34.00;13.75;;;6.40;87.70;;;;;;4989118;28;20046;-65
2023/10/18 04:56:34;;;;;;;44.40;15.15;;;6.40;87.80;;;;;;4988655;28;20034;-64
2023/10/18 04:59:10;;;;;;;83.68;16.33;;;6.30;88.00;;;;;;4988750;28;20122;-64
2023/10/18 05:01:53;;;;;;;45.15;14.90;;;6.30;88.30;;;;;;4988873;28;20042;-64
2023/10/18 05:04:34;;;;;;;43.85;15.13;;;6.30;88.30;;;;;;4988894;28;20039;-64
2023/10/18 05:07:14;;;;;;;34.55;14.18;;;6.40;88.40;;;;;;4988729;28;20066;-64
2023/10/18 05:12:16;;;;;;;31.33;15.10;;;6.40;88.40;;;;;;4986378;28;20035;-64
2023/10/18 05:15:08;;;;;;;;;;;6.50;88.50;;;;;;4988612;28;20061;-64
2023/10/18 05:17:33;;;;;;;46.88;19.13;;;6.50;89.30;;;;;;4988222;28;19914;-64
2023/10/18 05:20:21;;;;;;;58.00;15.77;;;6.50;87.90;;;;;;4988553;28;20034;-64
2023/10/18 05:22:48;;;;;;;32.58;13.93;;;6.50;87.90;;;;;;4987659;28;20053;-64
2023/10/18 05:27:45;;;;;;;21.08;14.00;;;6.50;88.00;;;;;;4988960;28;20042;-64
2023/10/18 05:30:15;;;;;;;94.15;14.73;;;6.50;88.00;;;;;;4988208;28;20529;-64
2023/10/18 05:35:35;;;;;;;24.65;13.82;;;6.60;87.90;;;;;;4988572;28;20133;-64
2023/10/18 05:43:06;;;;;;;21.80;14.05;;;6.60;87.60;;;;;;4988250;28;20062;-64
2023/10/18 05:45:32;;;;;;;21.92;12.55;;;6.60;87.70;;;;;;4988454;28;20521;-64
2023/10/18 05:48:12;;;;;;;25.02;13.00;;;6.60;87.70;;;;;;4988413;28;20790;-64
2023/10/18 05:50:38;;;;;;;26.05;13.80;;;6.60;87.80;;;;;;4987604;28;20034;-64
2023/10/18 05:53:11;;;;;;;32.03;13.70;;;6.60;87.50;;;;;;4987755;28;20034;-64
2023/10/18 05:55:38;;;;;;;68.55;14.40;;;6.60;87.50;;;;;;4988286;28;20061;-64
2023/10/18 05:58:05;;;;;;;34.53;13.70;;;6.60;87.50;;;;;;4987680;28;20066;-64
2023/10/18 06:00:33;;;;;;;81.70;14.18;;;6.50;87.30;;;;;;4987201;28;20026;-64
2023/10/18 06:02:59;;;;;;;118.80;16.35;;;6.50;87.30;;;;;;4987889;28;20435;-64
2023/10/18 06:05:27;;;;;;;48.42;13.85;;;6.50;87.30;;;;;;4987466;28;20058;-64
2023/10/18 06:07:53;;;;;;;32.92;14.07;;;6.40;87.40;;;;;;4987983;28;20037;-63
2023/10/18 06:10:23;;;;;;;18.85;13.13;;;6.30;87.60;;;;;;4986578;28;20035;-64
2023/10/18 06:12:48;;;;;;;23.13;12.68;;;6.30;87.90;;;;;;4985843;28;20038;-64
2023/10/18 06:15:30;;;;;;;29.58;13.80;;;6.30;88.20;;;;;;4987680;28;20109;-64
2023/10/18 06:17:57;;;;;;;19.30;12.90;;;6.40;88.50;;;;;;4987147;28;20039;-63
2023/10/18 06:22:53;;;;;;;22.40;13.90;;;6.40;88.60;;;;;;4985923;28;20038;-64
2023/10/18 06:25:25;;;;;;;33.72;13.50;;;6.50;88.60;;;;;;4986934;28;20454;-64
2023/10/18 06:27:53;;;;;;;19.15;13.02;;;6.50;88.30;;;;;;4987674;28;20089;-64
2023/10/18 06:30:19;;;;;;;45.53;13.38;;;6.50;88.00;;;;;;4986917;28;20042;-64
2023/10/18 06:32:45;;;;;;;26.77;13.52;;;6.50;88.00;;;;;;4986883;28;20510;-64
2023/10/18 06:35:17;;;;;;;18.75;12.70;;;6.50;88.10;;;;;;4987129;28;20038;-64
2023/10/18 06:37:43;;;;;;;19.92;12.63;;;6.50;88.20;;;;;;4987224;28;20036;-64
2023/10/18 06:40:22;;;;;;;16.08;12.48;;;6.50;88.20;;;;;;4987107;28;20038;-64
2023/10/18 06:42:48;;;;;;;16.35;12.27;;;6.60;88.40;;;;;;4986316;28;20034;-64
2023/10/18 06:45:25;;;;;;;16.63;12.35;;;6.60;88.20;;;;;;4987017;28;20037;-64
2023/10/18 06:47:54;;;;;;;17.02;12.20;;;6.60;88.00;;;;;;4987603;28;20035;-64
2023/10/18 06:50:26;;;;;;;17.38;12.68;;;6.60;87.90;;;;;;4986986;28;20038;-65
2023/10/18 06:52:52;;;;;;;17.40;12.63;;;6.60;87.90;;;;;;4986758;28;20042;-64
2023/10/18 06:55:35;;;;;;;16.05;12.20;;;6.70;88.00;;;;;;4986567;28;20030;-64
2023/10/18 06:58:11;;;;;;;16.27;11.70;;;6.60;87.90;;;;;;4986702;28;20046;-64
2023/10/18 07:00:43;;;;;;;16.50;12.23;;;6.70;88.00;;;;;;4986455;28;20479;-64
2023/10/18 07:03:16;;;;;;;20.77;13.18;;;6.70;87.90;;;;;;4987066;28;20027;-64
2023/10/18 07:05:49;;;;;;;23.70;13.57;;;6.70;87.80;;;;;;4986816;28;20037;-64
2023/10/18 07:08:25;;;;;;;20.23;12.98;;;6.70;87.60;;;;;;4987175;28;20038;-64
2023/10/18 07:10:54;;;;;;;17.45;12.65;;;6.70;87.60;;;;;;4985500;28;20027;-64
2023/10/18 07:13:32;;;;;;;19.92;13.23;;;6.70;87.60;;;;;;4986098;28;20036;-64
2023/10/18 07:16:12;;;;;;;20.75;14.27;;;6.70;87.80;;;;;;4986917;28;20528;-64
2023/10/18 07:18:44;;;;;;;26.25;13.27;;;6.70;88.00;;;;;;4985849;28;20501;-64
2023/10/18 07:21:10;;;;;;;20.15;13.15;;;6.70;87.80;;;;;;4986427;28;20421;-64
2023/10/18 07:23:37;;;;;;;19.90;12.98;;;6.80;87.80;;;;;;4985382;28;20042;-64
2023/10/18 07:26:07;;;;;;;33.75;12.85;;;6.80;87.80;;;;;;4986576;28;20039;-65
2023/10/18 07:28:35;;;;;;;18.75;13.48;;;6.80;87.90;;;;;;4986096;28;20073;-64
2023/10/18 07:31:08;;;;;;;19.17;13.32;;;6.80;87.90;;;;;;4985608;28;20073;-64
2023/10/18 07:33:50;;;;;;;17.50;12.52;;;6.80;87.80;;;;;;4984985;28;20065;-65
2023/10/18 07:36:18;;;;;;;17.75;12.98;;;6.80;87.60;;;;;;4986668;28;20418;-64
2023/10/18 07:38:47;;;;;;;19.15;13.40;;;6.80;87.60;;;;;;4985788;28;20141;-64
2023/10/18 07:41:15;;;;;;;26.15;13.93;;;6.80;87.60;;;;;;4985959;28;20060;-64
2023/10/18 07:43:44;;;;;;;16.63;12.40;;;6.90;87.60;;;;;;4986533;28;20046;-64
2023/10/18 07:46:16;;;;;;;17.02;12.40;;;6.90;87.50;;;;;;4986363;28;20041;-64
2023/10/18 07:48:47;;;;;;;26.88;12.88;;;6.90;87.50;;;;;;4986123;28;20565;-64
2023/10/18 07:51:23;;;;;;;17.45;12.05;;;6.90;87.50;;;;;;4986234;28;20042;-64
2023/10/18 07:53:55;;;;;;;16.48;11.98;;;6.90;87.40;;;;;;4986103;28;20481;-64
2023/10/18 07:56:29;;;;;;;16.42;12.57;;;6.90;87.30;;;;;;4986069;28;20042;-64
2023/10/18 07:59:07;;;;;;;17.07;12.30;;;6.90;87.40;;;;;;4986021;28;20052;-64
2023/10/18 08:04:20;;;;;;;16.25;11.93;;;6.90;87.40;;;;;;4986457;28;20037;-64
2023/10/18 08:06:46;;;;;;;17.80;12.68;;;6.90;87.30;;;;;;4986307;28;20337;-64
2023/10/18 08:09:12;;;;;;;16.95;12.63;;;6.90;87.40;;;;;;4987489;28;20151;-64
2023/10/18 08:11:38;;;;;;;17.60;13.00;;;6.90;87.50;;;;;;4986840;28;20030;-64
2023/10/18 08:14:10;;;;;;;18.15;13.27;;;6.90;87.40;;;;;;4987371;28;20046;-64
2023/10/18 08:16:51;;;;;;;16.13;11.98;;;6.90;87.60;;;;;;4987000;28;20065;-64
2023/10/18 08:19:22;;;;;;;16.80;12.25;;;6.90;87.50;;;;;;4986980;28;20038;-64
2023/10/18 08:22:21;;;;;;;17.55;12.70;;;6.90;87.40;;;;;;4987818;28;20045;-64
2023/10/18 08:24:49;;;;;;;20.80;13.70;;;6.90;87.40;;;;;;4985625;28;20035;-64
2023/10/18 08:27:15;;;;;;;21.67;13.10;;;6.90;87.40;;;;;;4986996;28;20042;-64
2023/10/18 08:29:41;;;;;;;16.02;12.88;;;6.90;87.40;;;;;;4987348;28;20042;-64
2023/10/18 08:32:17;;;;;;;16.38;12.48;;;7.00;87.40;;;;;;4987213;28;20100;-64
2023/10/18 08:34:43;;;;;;;16.33;12.27;;;7.00;87.20;;;;;;4986739;28;20031;-64
2023/10/18 08:37:15;;;;;;;15.32;11.77;;;7.00;87.40;;;;;;4987024;28;20034;-65
2023/10/18 08:39:52;;;;;;;16.20;11.73;;;7.00;87.50;;;;;;4986693;28;20061;-64
2023/10/18 08:42:21;;;;;;;17.38;12.77;;;7.00;87.60;;;;;;4986660;28;20049;-64
2023/10/18 08:44:55;;;;;;;15.52;11.68;;;7.10;87.60;;;;;;4988268;28;20042;-64
2023/10/18 08:47:29;;;;;;;16.63;12.10;;;7.10;87.50;;;;;;4990442;28;20065;-64
2023/10/18 08:49:56;;;;;;;16.00;12.15;;;7.10;87.50;;;;;;4990505;28;20454;-64
2023/10/18 08:52:30;;;;;;;15.48;12.02;;;7.20;87.50;;;;;;4990007;28;20030;-64
2023/10/18 08:54:59;;;;;;;17.13;12.67;;;7.20;87.60;;;;;;4990328;28;20070;-64
2023/10/18 08:57:37;;;;;;;16.30;12.23;;;7.30;87.60;;;;;;4990697;28;20035;-65
2023/10/18 09:02:53;;;;;;;16.20;12.27;;;7.30;87.10;;;;;;4966511;28;20039;-64
2023/10/18 09:05:24;;;;;;;17.30;12.90;;;7.40;87.00;;;;;;4990293;28;20050;-64
2023/10/18 09:07:59;;;;;;;15.85;12.35;;;7.40;87.10;;;;;;4990234;28;20057;-64
2023/10/18 09:15:55;;;;;;;19.05;13.52;;;7.50;87.30;;;;;;4990316;28;20516;-64
2023/10/18 09:18:22;;;;;;;21.02;14.52;;;7.50;87.20;;;;;;4989482;28;20037;-64
2023/10/18 09:20:49;;;;;;;19.27;14.43;;;7.60;86.90;;;;;;4989463;28;20570;-64
2023/10/18 09:23:21;;;;;;;19.58;14.10;;;7.60;86.60;;;;;;4988512;28;20088;-64
2023/10/18 09:26:00;;;;;;;18.73;13.52;;;7.50;87.40;;;;;;4989804;28;20533;-64
2023/10/18 09:28:25;;;;;;;19.35;13.98;;;7.50;87.00;;;;;;4988976;28;20405;-64
2023/10/18 09:31:00;;;;;;;18.63;14.15;;;7.50;87.10;;;;;;4989844;28;20046;-65
2023/10/18 09:33:33;;;;;;;19.65;14.40;;;7.60;87.40;;;;;;4989186;28;20027;-64
2023/10/18 09:36:02;;;;;;;19.40;13.80;;;7.60;87.50;;;;;;4989288;28;20038;-64
2023/10/18 09:38:41;;;;;;;21.48;15.05;;;7.60;87.50;;;;;;4989287;28;20031;-65
2023/10/18 09:41:07;;;;;;;24.48;15.63;;;7.60;87.40;;;;;;4989357;28;20049;-64
2023/10/18 09:43:36;;;;;;;23.13;16.13;;;7.70;87.20;;;;;;4988897;28;20023;-64
2023/10/18 09:46:03;;;;;;;23.70;17.00;;;7.70;87.40;;;;;;4989203;28;20031;-64
2023/10/18 09:48:32;;;;;;;24.55;17.02;;;7.70;87.30;;;;;;4988502;28;20102;-64
2023/10/18 09:51:06;;;;;;;22.98;16.05;;;7.70;87.30;;;;;;4989255;28;20073;-65
2023/10/18 09:53:53;;;;;;;22.58;16.25;;;7.70;87.10;;;;;;4989318;28;20105;-65
2023/10/18 09:56:35;;;;;;;23.92;17.73;;;7.70;87.30;;;;;;4988222;28;20439;-64
2023/10/18 09:59:15;;;;;;;22.63;15.60;;;7.70;87.20;;;;;;4988647;28;20514;-64
2023/10/18 10:04:17;;;;;;;21.48;14.68;;;7.80;87.30;;;;;;4988678;28;20034;-64
2023/10/18 10:06:55;;;;;;;24.17;15.85;;;7.80;87.30;;;;;;4988913;28;20039;-65
2023/10/18 10:09:29;;;;;;;23.27;16.98;;;7.90;87.40;;;;;;4988769;28;20031;-64
2023/10/18 10:11:55;;;;;;;25.00;16.80;;;7.90;87.30;;;;;;4987079;28;20576;-64
2023/10/18 10:14:26;;;;;;;24.23;17.08;;;8.00;87.10;;;;;;4988226;28;20129;-64
2023/10/18 10:17:05;;;;;;;26.35;16.67;;;8.00;86.80;;;;;;4989090;28;20046;-65
2023/10/18 10:19:41;;;;;;;24.15;16.45;;;8.00;86.90;;;;;;4988693;28;20037;-63
2023/10/18 10:22:08;;;;;;;23.80;17.52;;;8.10;86.70;;;;;;4989370;28;20034;-64
2023/10/18 10:24:51;;;;;;;23.55;16.30;;;8.10;86.90;;;;;;4986768;28;20030;-64
2023/10/18 10:27:41;;;;;;;23.60;15.90;;;8.10;86.70;;;;;;4988863;28;20531;-64
2023/10/18 10:33:05;;;;;;;23.58;15.70;;;8.20;87.30;;;;;;4987804;28;20521;-64
2023/10/18 10:35:35;;;;;;;24.95;16.55;;;8.20;87.20;;;;;;4989230;28;20031;-64
2023/10/18 10:38:01;;;;;;;22.73;16.25;;;8.30;87.10;;;;;;4987876;28;20058;-64
2023/10/18 10:43:01;;;;;;;22.73;15.93;;;8.40;86.90;;;;;;4988417;28;20041;-64
2023/10/18 10:48:17;;;;;;;21.07;15.40;;;8.50;86.80;;;;;;4988271;28;20589;-64
2023/10/18 10:50:53;;;;;;;23.08;17.10;;;8.60;86.90;;;;;;4988122;28;20032;-64
2023/10/18 10:53:30;;;;;;;25.45;15.57;;;8.70;86.90;;;;;;4987651;28;20404;-65
2023/10/18 10:55:56;;;;;;;23.90;16.52;;;8.70;86.50;;;;;;4988316;28;20043;-64
2023/10/18 10:58:23;;;;;;;23.17;16.35;;;8.80;86.40;;;;;;4988341;28;20031;-64
2023/10/18 11:01:02;;;;;;;22.83;16.20;;;8.80;86.20;;;;;;4987288;28;20124;-65
2023/10/18 11:03:53;;;;;;;20.90;15.98;;;8.90;85.90;;;;;;4987944;28;20030;-64
2023/10/18 11:06:32;;;;;;;21.50;15.68;;;8.90;85.70;;;;;;4987911;28;20035;-64
2023/10/18 11:08:58;;;;;;;21.15;15.98;;;8.90;85.70;;;;;;4987685;28;20038;-65
2023/10/18 11:11:27;;;;;;;25.67;18.20;;;9.00;85.90;;;;;;4983968;28;20551;-65
2023/10/18 11:13:53;;;;;;;25.17;18.42;;;9.00;85.70;;;;;;4988140;28;20404;-64
2023/10/18 11:16:20;;;;;;;25.33;17.88;;;9.10;85.60;;;;;;4987673;28;20153;-65
2023/10/18 11:18:52;;;;;;;22.38;17.13;;;9.00;85.60;;;;;;4986936;28;20046;-65
2023/10/18 11:21:19;;;;;;;23.80;17.67;;;9.10;85.70;;;;;;4988426;28;20039;-64
2023/10/18 11:23:49;;;;;;;27.63;17.65;;;9.10;85.70;;;;;;4986899;28;20102;-65
2023/10/18 11:26:24;;;;;;;25.38;18.42;;;9.10;85.50;;;;;;4987488;28;20052;-65
2023/10/18 11:28:58;;;;;;;24.23;17.98;;;9.20;85.00;;;;;;4987575;28;20132;-65
2023/10/18 11:31:28;;;;;;;26.05;18.55;;;9.10;85.00;;;;;;4987529;28;20423;-65
2023/10/18 11:34:05;;;;;;;25.42;17.92;;;9.10;85.00;;;;;;4985999;28;20074;-65
2023/10/18 11:36:35;;;;;;;25.70;18.25;;;9.10;84.70;;;;;;4986949;28;20101;-65
2023/10/18 11:39:07;;;;;;;22.33;16.65;;;9.10;85.00;;;;;;4987708;28;20174;-65
2023/10/18 11:41:34;;;;;;;23.08;17.33;;;9.00;85.20;;;;;;4987947;28;20391;-65
2023/10/18 11:44:07;;;;;;;20.58;16.05;;;9.00;85.30;;;;;;4987519;28;20055;-65
2023/10/18 11:46:46;;;;;;;23.70;17.27;;;9.00;85.30;;;;;;4987108;28;20096;-65
2023/10/18 11:49:19;;;;;;;23.90;17.65;;;9.00;85.30;;;;;;4987041;28;20043;-65
2023/10/18 11:51:45;;;;;;;22.25;17.23;;;9.10;85.50;;;;;;4987248;28;20054;-65
2023/10/18 11:54:14;;;;;;;22.92;16.80;;;9.10;86.20;;;;;;4986592;28;20521;-65
2023/10/18 11:56:40;;;;;;;22.08;16.63;;;9.00;85.30;;;;;;4987269;28;20379;-65
2023/10/18 11:59:05;;;;;;;24.77;17.30;;;9.00;85.30;;;;;;4986990;28;20044;-65
2023/10/18 12:01:33;;;;;;;40.83;24.85;;;9.00;85.40;;;;;;4987406;28;20034;-64
2023/10/18 12:03:59;;;;;;;26.90;18.77;;;9.10;85.60;;;;;;4987393;28;20042;-65
2023/10/18 12:06:25;;;;;;;29.27;18.60;;;9.10;85.50;;;;;;4986397;28;20045;-64
2023/10/18 12:09:25;;;;;;;33.70;21.08;;;9.10;85.40;;;;;;4987158;28;20465;-65
2023/10/18 12:11:54;;;;;;;30.10;18.63;;;9.20;85.50;;;;;;4985540;28;20043;-64
2023/10/18 12:14:22;;;;;;;25.77;19.35;;;9.30;85.50;;;;;;4987112;28;20229;-64
2023/10/18 12:16:50;;;;;;;22.17;16.77;;;9.30;85.40;;;;;;4987219;28;20105;-64
2023/10/18 12:19:15;;;;;;;22.50;16.90;;;9.30;86.20;;;;;;4988155;28;20030;-64
2023/10/18 12:21:48;;;;;;;23.65;17.60;;;9.30;85.40;;;;;;4992030;28;20041;-65
2023/10/18 12:24:15;;;;;;;23.55;17.05;;;9.40;85.30;;;;;;4988781;28;20517;-65
2023/10/18 12:26:41;;;;;;;24.45;17.55;;;9.40;85.20;;;;;;4990213;28;20054;-65
2023/10/18 12:29:06;;;;;;;22.40;16.83;;;9.40;85.20;;;;;;4991305;28;20398;-64
2023/10/18 12:31:39;;;;;;;22.67;16.48;;;9.40;85.00;;;;;;4990419;28;20490;-65
2023/10/18 12:34:05;;;;;;;22.55;16.33;;;9.50;85.00;;;;;;4990131;28;20038;-65
2023/10/18 12:36:40;;;;;;;22.88;16.92;;;9.50;85.00;;;;;;4990792;28;20053;-64
2023/10/18 12:39:09;;;;;;;24.00;17.30;;;9.50;85.00;;;;;;4990467;28;20667;-64
2023/10/18 12:41:39;;;;;;;23.92;17.02;;;9.60;85.00;;;;;;4990552;28;20030;-65
2023/10/18 12:44:11;;;;;;;25.25;17.15;;;9.60;85.00;;;;;;4990274;28;20038;-65
2023/10/18 12:46:37;;;;;;;22.65;16.40;;;9.60;85.00;;;;;;4990318;28;20038;-65
2023/10/18 12:49:05;;;;;;;21.90;16.30;;;9.70;85.00;;;;;;4990240;28;20027;-65
2023/10/18 12:51:31;;;;;;;23.33;16.58;;;9.70;85.00;;;;;;4990691;28;20045;-64
2023/10/18 12:53:59;;;;;;;23.65;17.08;;;9.80;84.80;;;;;;4990280;28;20034;-64
2023/10/18 13:04:07;;;;;;;23.52;17.23;;;9.90;84.70;;;;;;4989395;28;20035;-65
2023/10/18 13:06:42;;;;;;;22.80;17.13;;;9.90;84.60;;;;;;4989445;28;20038;-64
2023/10/18 13:12:07;;;;;;;23.40;17.35;;;9.90;84.60;;;;;;4988065;28;20521;-64
2023/10/18 13:14:34;;;;;;;21.90;16.92;;;10.00;84.70;;;;;;4989153;28;20416;-64
2023/10/18 13:17:03;;;;;;;24.15;16.75;;;10.10;84.60;;;;;;4990292;28;20104;-65
2023/10/18 13:19:28;;;;;;;22.88;17.08;;;10.10;84.50;;;;;;4989790;28;20046;-64
2023/10/18 13:21:55;;;;;;;21.00;16.60;;;10.10;84.50;;;;;;4990571;28;20113;-65
2023/10/18 13:26:54;;;;;;;23.70;16.70;;;10.20;84.20;;;;;;4988980;28;20505;-65
2023/10/18 13:31:49;;;;;;;21.58;16.65;;;10.30;84.00;;;;;;4988519;28;20544;-65
2023/10/18 13:34:20;;;;;;;21.75;16.70;;;10.30;84.00;;;;;;4989058;28;20034;-65
2023/10/18 13:36:53;;;;;;;21.88;15.73;;;10.40;84.00;;;;;;4988768;28;20488;-65
2023/10/18 13:39:22;;;;;;;22.00;16.25;;;10.40;83.80;;;;;;4988738;28;20042;-65
2023/10/18 13:41:49;;;;;;;20.63;15.85;;;10.40;83.60;;;;;;4988469;28;20525;-64
2023/10/18 13:44:19;;;;;;;19.52;15.60;;;10.40;83.60;;;;;;4988763;28;20594;-65
2023/10/18 13:46:47;;;;;;;21.40;15.75;;;10.50;83.60;;;;;;4988794;28;20066;-65
2023/10/18 13:49:13;;;;;;;22.65;16.08;;;10.50;83.60;;;;;;4988297;28;20417;-65
2023/10/18 13:51:41;;;;;;;22.35;16.70;;;10.50;83.60;;;;;;4988843;28;20035;-65
2023/10/18 13:54:09;;;;;;;20.83;16.27;;;10.50;83.60;;;;;;4988478;28;20557;-65
2023/10/18 13:56:35;;;;;;;22.67;16.80;;;10.50;83.60;;;;;;4988378;28;20482;-65
2023/10/18 13:59:01;;;;;;;20.52;16.40;;;10.60;83.50;;;;;;4989527;28;20049;-65
2023/10/18 14:01:28;;;;;;;22.42;16.25;;;10.60;83.50;;;;;;4989351;28;20529;-65
2023/10/18 14:03:54;;;;;;;20.02;15.57;;;10.60;83.40;;;;;;4987984;28;20075;-65
2023/10/18 14:06:20;;;;;;;24.85;15.88;;;10.60;83.40;;;;;;4988873;28;20058;-65